sensor_id;sensor_type;location;lat;lon;timestamp;temperature;humidity
37342;DHT22;58643;49.052;8.518;2023-03-17T00:00:27;7.20;99.90
37342;DHT22;58643;49.052;8.518;2023-03-17T00:02:52;9.00;99.90
37342;DHT22;58643;49.052;8.518;2023-03-17T00:05:20;7.30;99.90
37342;DHT22;58643;49.052;8.518;2023-03-17T00:07:46;7.40;99.90
37342;DHT22;58643;49.052;8.518;2023-03-17T00:10:13;9.20;99.90
37342;DHT22;58643;49.052;8.518;2023-03-17T00:12:39;7.40;99.90
37342;DHT22;58643;49.052;8.518;2023-03-17T00:15:05;7.30;99.90
37342;DHT22;58643;49.052;8.518;2023-03-17T00:17:31;7.30;99.90
37342;DHT22;58643;49.052;8.518;2023-03-17T00:19:57;7.20;99.90
37342;DHT22;58643;49.052;8.518;2023-03-17T00:22:22;9.40;99.90
37342;DHT22;58643;49.052;8.518;2023-03-17T00:24:48;7.50;99.90
37342;DHT22;58643;49.052;8.518;2023-03-17T00:27:13;10.20;99.90
37342;DHT22;58643;49.052;8.518;2023-03-17T00:29:39;7.50;99.90
37342;DHT22;58643;49.052;8.518;2023-03-17T00:32:08;7.40;99.90
37342;DHT22;58643;49.052;8.518;2023-03-17T00:34:36;7.70;99.90
37342;DHT22;58643;49.052;8.518;2023-03-17T00:37:01;8.00;99.90
37342;DHT22;58643;49.052;8.518;2023-03-17T00:39:28;7.40;99.90
37342;DHT22;58643;49.052;8.518;2023-03-17T00:41:54;7.80;99.90
37342;DHT22;58643;49.052;8.518;2023-03-17T00:44:19;7.50;99.90
37342;DHT22;58643;49.052;8.518;2023-03-17T00:46:45;7.50;99.90
37342;DHT22;58643;49.052;8.518;2023-03-17T00:49:12;7.60;99.90
37342;DHT22;58643;49.052;8.518;2023-03-17T00:51:39;7.60;99.90
37342;DHT22;58643;49.052;8.518;2023-03-17T00:54:05;7.50;99.90
37342;DHT22;58643;49.052;8.518;2023-03-17T00:56:31;8.70;99.90
37342;DHT22;58643;49.052;8.518;2023-03-17T00:58:57;7.50;99.90
37342;DHT22;58643;49.052;8.518;2023-03-17T01:01:22;7.20;99.90
37342;DHT22;58643;49.052;8.518;2023-03-17T01:03:48;7.50;99.90
37342;DHT22;58643;49.052;8.518;2023-03-17T01:06:13;9.90;99.90
37342;DHT22;58643;49.052;8.518;2023-03-17T01:08:39;9.50;99.90
37342;DHT22;58643;49.052;8.518;2023-03-17T01:11:05;7.50;99.90
37342;DHT22;58643;49.052;8.518;2023-03-17T01:13:31;9.10;99.90
37342;DHT22;58643;49.052;8.518;2023-03-17T01:15:57;7.70;99.90
37342;DHT22;58643;49.052;8.518;2023-03-17T01:18:22;9.70;99.90
37342;DHT22;58643;49.052;8.518;2023-03-17T01:20:49;7.50;99.90
37342;DHT22;58643;49.052;8.518;2023-03-17T01:23:14;7.50;99.90
37342;DHT22;58643;49.052;8.518;2023-03-17T01:25:41;7.50;99.90
37342;DHT22;58643;49.052;8.518;2023-03-17T01:28:08;7.60;99.90
37342;DHT22;58643;49.052;8.518;2023-03-17T01:30:36;8.20;99.90
37342;DHT22;58643;49.052;8.518;2023-03-17T01:33:03;7.40;99.90
37342;DHT22;58643;49.052;8.518;2023-03-17T01:35:28;8.40;99.90
37342;DHT22;58643;49.052;8.518;2023-03-17T01:37:54;9.20;99.90
37342;DHT22;58643;49.052;8.518;2023-03-17T01:40:25;8.40;99.90
37342;DHT22;58643;49.052;8.518;2023-03-17T01:43:00;7.50;99.90
37342;DHT22;58643;49.052;8.518;2023-03-17T01:48:10;7.60;99.90
37342;DHT22;58643;49.052;8.518;2023-03-17T01:50:36;8.00;99.90
37342;DHT22;58643;49.052;8.518;2023-03-17T01:53:01;10.30;99.90
37342;DHT22;58643;49.052;8.518;2023-03-17T01:55:27;9.10;99.90
37342;DHT22;58643;49.052;8.518;2023-03-17T01:57:54;7.20;99.90
37342;DHT22;58643;49.052;8.518;2023-03-17T02:00:21;7.20;99.90
37342;DHT22;58643;49.052;8.518;2023-03-17T02:02:49;7.10;99.90
37342;DHT22;58643;49.052;8.518;2023-03-17T02:05:16;7.70;99.90
37342;DHT22;58643;49.052;8.518;2023-03-17T02:07:43;7.10;99.90
37342;DHT22;58643;49.052;8.518;2023-03-17T02:10:12;6.80;99.90
37342;DHT22;58643;49.052;8.518;2023-03-17T02:12:38;7.40;99.90
37342;DHT22;58643;49.052;8.518;2023-03-17T02:15:05;9.70;99.90
37342;DHT22;58643;49.052;8.518;2023-03-17T02:17:32;7.50;99.90
37342;DHT22;58643;49.052;8.518;2023-03-17T02:22:53;7.50;99.90
37342;DHT22;58643;49.052;8.518;2023-03-17T02:25:19;7.50;99.90
37342;DHT22;58643;49.052;8.518;2023-03-17T02:27:47;7.50;99.90
37342;DHT22;58643;49.052;8.518;2023-03-17T02:30:14;8.50;99.90
37342;DHT22;58643;49.052;8.518;2023-03-17T02:32:40;7.00;99.90
37342;DHT22;58643;49.052;8.518;2023-03-17T02:35:06;7.00;99.90
37342;DHT22;58643;49.052;8.518;2023-03-17T02:37:32;6.60;99.90
37342;DHT22;58643;49.052;8.518;2023-03-17T02:39:58;6.90;99.90
37342;DHT22;58643;49.052;8.518;2023-03-17T02:42:25;6.70;99.90
37342;DHT22;58643;49.052;8.518;2023-03-17T02:44:51;6.60;99.90
37342;DHT22;58643;49.052;8.518;2023-03-17T02:47:17;6.70;99.90
37342;DHT22;58643;49.052;8.518;2023-03-17T02:49:42;8.30;99.90
37342;DHT22;58643;49.052;8.518;2023-03-17T02:52:08;6.70;99.90
37342;DHT22;58643;49.052;8.518;2023-03-17T02:54:34;6.80;99.90
37342;DHT22;58643;49.052;8.518;2023-03-17T02:57:00;6.70;99.90
37342;DHT22;58643;49.052;8.518;2023-03-17T02:59:25;7.60;99.90
37342;DHT22;58643;49.052;8.518;2023-03-17T03:01:51;8.30;99.90
37342;DHT22;58643;49.052;8.518;2023-03-17T03:04:17;7.00;99.90
37342;DHT22;58643;49.052;8.518;2023-03-17T03:06:43;7.10;99.90
37342;DHT22;58643;49.052;8.518;2023-03-17T03:09:09;7.00;99.90
37342;DHT22;58643;49.052;8.518;2023-03-17T03:11:36;7.50;99.90
37342;DHT22;58643;49.052;8.518;2023-03-17T03:14:02;7.10;99.90
37342;DHT22;58643;49.052;8.518;2023-03-17T03:16:27;8.90;99.90
37342;DHT22;58643;49.052;8.518;2023-03-17T03:18:53;7.90;99.90
37342;DHT22;58643;49.052;8.518;2023-03-17T03:21:19;6.90;99.90
37342;DHT22;58643;49.052;8.518;2023-03-17T03:23:44;7.60;99.90
37342;DHT22;58643;49.052;8.518;2023-03-17T03:26:10;6.80;99.90
37342;DHT22;58643;49.052;8.518;2023-03-17T03:28:36;9.50;99.90
37342;DHT22;58643;49.052;8.518;2023-03-17T03:31:01;8.50;99.90
37342;DHT22;58643;49.052;8.518;2023-03-17T03:33:27;6.50;99.90
37342;DHT22;58643;49.052;8.518;2023-03-17T03:35:53;7.70;99.90
37342;DHT22;58643;49.052;8.518;2023-03-17T03:38:18;6.50;99.90
37342;DHT22;58643;49.052;8.518;2023-03-17T03:40:44;8.50;99.90
37342;DHT22;58643;49.052;8.518;2023-03-17T03:43:10;8.40;99.90
37342;DHT22;58643;49.052;8.518;2023-03-17T03:45:35;6.20;99.90
37342;DHT22;58643;49.052;8.518;2023-03-17T03:48:01;6.50;99.90
37342;DHT22;58643;49.052;8.518;2023-03-17T03:50:26;6.50;99.90
37342;DHT22;58643;49.052;8.518;2023-03-17T03:52:52;8.60;99.90
37342;DHT22;58643;49.052;8.518;2023-03-17T03:55:17;8.10;99.90
37342;DHT22;58643;49.052;8.518;2023-03-17T03:57:43;9.40;99.90
37342;DHT22;58643;49.052;8.518;2023-03-17T04:00:08;6.30;99.90
37342;DHT22;58643;49.052;8.518;2023-03-17T04:02:35;6.20;99.90
37342;DHT22;58643;49.052;8.518;2023-03-17T04:05:00;7.50;99.90
37342;DHT22;58643;49.052;8.518;2023-03-17T04:07:26;6.00;99.90
37342;DHT22;58643;49.052;8.518;2023-03-17T04:09:52;6.10;99.90
37342;DHT22;58643;49.052;8.518;2023-03-17T04:12:17;7.10;99.90
37342;DHT22;58643;49.052;8.518;2023-03-17T04:14:43;7.20;99.90
37342;DHT22;58643;49.052;8.518;2023-03-17T04:17:12;6.30;99.90
37342;DHT22;58643;49.052;8.518;2023-03-17T04:19:38;5.50;99.90
37342;DHT22;58643;49.052;8.518;2023-03-17T04:22:04;5.60;99.90
37342;DHT22;58643;49.052;8.518;2023-03-17T04:24:29;5.50;99.90
37342;DHT22;58643;49.052;8.518;2023-03-17T04:26:55;5.60;99.90
37342;DHT22;58643;49.052;8.518;2023-03-17T04:29:21;5.40;99.90
37342;DHT22;58643;49.052;8.518;2023-03-17T04:31:46;5.20;99.90
37342;DHT22;58643;49.052;8.518;2023-03-17T04:34:12;5.40;99.90
37342;DHT22;58643;49.052;8.518;2023-03-17T04:36:39;4.70;99.90
37342;DHT22;58643;49.052;8.518;2023-03-17T04:39:05;6.50;99.90
37342;DHT22;58643;49.052;8.518;2023-03-17T04:41:31;4.70;99.90
37342;DHT22;58643;49.052;8.518;2023-03-17T04:43:57;5.70;99.90
37342;DHT22;58643;49.052;8.518;2023-03-17T04:46:22;4.30;99.90
37342;DHT22;58643;49.052;8.518;2023-03-17T04:48:48;4.60;99.90
37342;DHT22;58643;49.052;8.518;2023-03-17T04:51:13;4.10;99.90
37342;DHT22;58643;49.052;8.518;2023-03-17T04:53:39;3.90;99.90
37342;DHT22;58643;49.052;8.518;2023-03-17T04:58:34;3.80;99.90
37342;DHT22;58643;49.052;8.518;2023-03-17T05:00:59;3.90;99.90
37342;DHT22;58643;49.052;8.518;2023-03-17T05:03:26;5.90;99.90
37342;DHT22;58643;49.052;8.518;2023-03-17T05:05:52;4.10;99.90
37342;DHT22;58643;49.052;8.518;2023-03-17T05:08:17;3.90;99.90
37342;DHT22;58643;49.052;8.518;2023-03-17T05:10:44;4.10;99.90
37342;DHT22;58643;49.052;8.518;2023-03-17T05:13:09;4.00;99.90
37342;DHT22;58643;49.052;8.518;2023-03-17T05:15:35;4.10;99.90
37342;DHT22;58643;49.052;8.518;2023-03-17T05:18:01;4.10;99.90
37342;DHT22;58643;49.052;8.518;2023-03-17T05:20:27;3.90;99.90
37342;DHT22;58643;49.052;8.518;2023-03-17T05:22:52;3.70;99.90
37342;DHT22;58643;49.052;8.518;2023-03-17T05:25:18;3.40;99.90
37342;DHT22;58643;49.052;8.518;2023-03-17T05:27:43;3.40;99.90
37342;DHT22;58643;49.052;8.518;2023-03-17T05:30:09;3.20;99.90
37342;DHT22;58643;49.052;8.518;2023-03-17T05:32:35;3.00;99.90
37342;DHT22;58643;49.052;8.518;2023-03-17T05:35:00;2.80;99.90
37342;DHT22;58643;49.052;8.518;2023-03-17T05:37:26;2.80;99.90
37342;DHT22;58643;49.052;8.518;2023-03-17T05:39:51;2.80;99.90
37342;DHT22;58643;49.052;8.518;2023-03-17T05:42:18;2.70;99.90
37342;DHT22;58643;49.052;8.518;2023-03-17T05:44:43;2.80;99.90
37342;DHT22;58643;49.052;8.518;2023-03-17T05:47:09;2.80;99.90
37342;DHT22;58643;49.052;8.518;2023-03-17T05:49:35;2.80;99.90
37342;DHT22;58643;49.052;8.518;2023-03-17T05:52:01;2.80;99.90
37342;DHT22;58643;49.052;8.518;2023-03-17T05:54:27;2.90;99.90
37342;DHT22;58643;49.052;8.518;2023-03-17T05:56:52;3.00;99.90
37342;DHT22;58643;49.052;8.518;2023-03-17T05:59:18;3.00;99.90
37342;DHT22;58643;49.052;8.518;2023-03-17T06:01:43;3.30;99.90
37342;DHT22;58643;49.052;8.518;2023-03-17T06:04:09;3.00;99.90
37342;DHT22;58643;49.052;8.518;2023-03-17T06:06:35;4.40;99.90
37342;DHT22;58643;49.052;8.518;2023-03-17T06:09:00;3.00;99.90
37342;DHT22;58643;49.052;8.518;2023-03-17T06:11:26;3.30;99.90
37342;DHT22;58643;49.052;8.518;2023-03-17T06:13:52;3.30;99.90
37342;DHT22;58643;49.052;8.518;2023-03-17T06:16:18;3.00;99.90
37342;DHT22;58643;49.052;8.518;2023-03-17T06:18:43;4.50;99.90
37342;DHT22;58643;49.052;8.518;2023-03-17T06:21:10;3.10;99.90
37342;DHT22;58643;49.052;8.518;2023-03-17T06:23:36;3.10;99.90
37342;DHT22;58643;49.052;8.518;2023-03-17T06:26:01;3.40;99.90
37342;DHT22;58643;49.052;8.518;2023-03-17T06:28:27;3.60;99.90
37342;DHT22;58643;49.052;8.518;2023-03-17T06:30:52;5.10;99.90
37342;DHT22;58643;49.052;8.518;2023-03-17T06:33:18;3.60;99.90
37342;DHT22;58643;49.052;8.518;2023-03-17T06:35:43;3.70;99.90
37342;DHT22;58643;49.052;8.518;2023-03-17T06:38:09;5.00;99.90
37342;DHT22;58643;49.052;8.518;2023-03-17T06:40:34;3.80;99.90
37342;DHT22;58643;49.052;8.518;2023-03-17T06:43:00;3.70;99.90
37342;DHT22;58643;49.052;8.518;2023-03-17T06:45:26;4.10;99.90
37342;DHT22;58643;49.052;8.518;2023-03-17T06:47:51;4.10;99.90
37342;DHT22;58643;49.052;8.518;2023-03-17T06:50:17;4.40;99.90
37342;DHT22;58643;49.052;8.518;2023-03-17T06:52:42;4.50;99.90
37342;DHT22;58643;49.052;8.518;2023-03-17T06:55:08;4.50;99.90
37342;DHT22;58643;49.052;8.518;2023-03-17T06:57:34;4.60;99.90
37342;DHT22;58643;49.052;8.518;2023-03-17T07:00:00;4.90;99.90
37342;DHT22;58643;49.052;8.518;2023-03-17T07:02:25;6.80;99.90
37342;DHT22;58643;49.052;8.518;2023-03-17T07:04:51;5.20;99.90
37342;DHT22;58643;49.052;8.518;2023-03-17T07:07:17;5.30;99.90
37342;DHT22;58643;49.052;8.518;2023-03-17T07:09:45;5.60;99.90
37342;DHT22;58643;49.052;8.518;2023-03-17T07:12:11;5.80;99.90
37342;DHT22;58643;49.052;8.518;2023-03-17T07:14:36;6.00;99.90
37342;DHT22;58643;49.052;8.518;2023-03-17T07:17:02;6.10;99.90
37342;DHT22;58643;49.052;8.518;2023-03-17T07:19:28;6.40;99.90
37342;DHT22;58643;49.052;8.518;2023-03-17T07:21:55;7.80;99.90
37342;DHT22;58643;49.052;8.518;2023-03-17T07:24:21;6.40;99.90
37342;DHT22;58643;49.052;8.518;2023-03-17T07:26:46;6.50;99.90
37342;DHT22;58643;49.052;8.518;2023-03-17T07:29:12;8.00;99.90
37342;DHT22;58643;49.052;8.518;2023-03-17T07:31:38;6.20;99.90
37342;DHT22;58643;49.052;8.518;2023-03-17T07:34:04;6.80;99.90
37342;DHT22;58643;49.052;8.518;2023-03-17T07:36:31;8.10;99.90
37342;DHT22;58643;49.052;8.518;2023-03-17T07:38:57;7.00;99.90
37342;DHT22;58643;49.052;8.518;2023-03-17T07:41:22;7.90;99.90
37342;DHT22;58643;49.052;8.518;2023-03-17T07:43:48;7.30;99.90
37342;DHT22;58643;49.052;8.518;2023-03-17T07:46:13;7.40;99.90
37342;DHT22;58643;49.052;8.518;2023-03-17T07:48:39;7.40;99.90
37342;DHT22;58643;49.052;8.518;2023-03-17T07:51:13;9.90;99.90
37342;DHT22;58643;49.052;8.518;2023-03-17T07:53:38;8.00;99.90
37342;DHT22;58643;49.052;8.518;2023-03-17T07:56:05;8.00;99.90
37342;DHT22;58643;49.052;8.518;2023-03-17T07:58:31;8.50;99.90
37342;DHT22;58643;49.052;8.518;2023-03-17T08:00:56;8.70;99.90
37342;DHT22;58643;49.052;8.518;2023-03-17T08:03:22;11.20;99.90
37342;DHT22;58643;49.052;8.518;2023-03-17T08:05:51;9.50;99.90
37342;DHT22;58643;49.052;8.518;2023-03-17T08:08:22;9.50;99.90
37342;DHT22;58643;49.052;8.518;2023-03-17T08:10:48;10.40;99.90
37342;DHT22;58643;49.052;8.518;2023-03-17T08:13:14;9.30;99.90
37342;DHT22;58643;49.052;8.518;2023-03-17T08:15:39;9.70;99.90
37342;DHT22;58643;49.052;8.518;2023-03-17T08:18:05;11.80;99.90
37342;DHT22;58643;49.052;8.518;2023-03-17T08:20:31;11.10;99.90
37342;DHT22;58643;49.052;8.518;2023-03-17T08:22:56;10.70;99.90
37342;DHT22;58643;49.052;8.518;2023-03-17T08:25:22;10.60;99.90
37342;DHT22;58643;49.052;8.518;2023-03-17T08:27:49;10.70;99.90
37342;DHT22;58643;49.052;8.518;2023-03-17T08:30:15;11.20;99.90
37342;DHT22;58643;49.052;8.518;2023-03-17T08:32:41;11.30;99.90
37342;DHT22;58643;49.052;8.518;2023-03-17T08:35:10;12.20;99.90
37342;DHT22;58643;49.052;8.518;2023-03-17T08:37:35;11.50;99.90
37342;DHT22;58643;49.052;8.518;2023-03-17T08:40:02;12.60;99.90
37342;DHT22;58643;49.052;8.518;2023-03-17T08:42:29;11.80;99.90
37342;DHT22;58643;49.052;8.518;2023-03-17T08:44:55;12.10;99.90
37342;DHT22;58643;49.052;8.518;2023-03-17T08:47:20;13.50;99.90
37342;DHT22;58643;49.052;8.518;2023-03-17T08:49:46;12.60;99.90
37342;DHT22;58643;49.052;8.518;2023-03-17T08:52:11;12.30;99.90
37342;DHT22;58643;49.052;8.518;2023-03-17T08:54:37;13.10;99.90
37342;DHT22;58643;49.052;8.518;2023-03-17T08:57:02;13.40;99.90
37342;DHT22;58643;49.052;8.518;2023-03-17T08:59:28;12.30;99.90
37342;DHT22;58643;49.052;8.518;2023-03-17T09:01:54;12.60;99.90
37342;DHT22;58643;49.052;8.518;2023-03-17T09:04:20;14.30;99.90
37342;DHT22;58643;49.052;8.518;2023-03-17T09:06:47;13.40;99.90
37342;DHT22;58643;49.052;8.518;2023-03-17T09:09:14;13.30;99.90
37342;DHT22;58643;49.052;8.518;2023-03-17T09:11:40;13.80;99.90
37342;DHT22;58643;49.052;8.518;2023-03-17T09:14:05;14.10;99.90
37342;DHT22;58643;49.052;8.518;2023-03-17T09:16:31;15.20;97.40
37342;DHT22;58643;49.052;8.518;2023-03-17T09:18:58;16.80;90.90
37342;DHT22;58643;49.052;8.518;2023-03-17T09:21:23;19.50;78.40
37342;DHT22;58643;49.052;8.518;2023-03-17T09:23:49;20.00;70.40
37342;DHT22;58643;49.052;8.518;2023-03-17T09:26:15;20.90;62.90
37342;DHT22;58643;49.052;8.518;2023-03-17T09:28:40;20.00;64.00
37342;DHT22;58643;49.052;8.518;2023-03-17T09:31:06;20.20;62.90
37342;DHT22;58643;49.052;8.518;2023-03-17T09:33:36;19.40;62.80
37342;DHT22;58643;49.052;8.518;2023-03-17T09:36:02;20.50;63.60
37342;DHT22;58643;49.052;8.518;2023-03-17T09:38:27;21.30;60.00
37342;DHT22;58643;49.052;8.518;2023-03-17T09:43:30;23.20;53.00
37342;DHT22;58643;49.052;8.518;2023-03-17T09:46:06;22.70;54.80
37342;DHT22;58643;49.052;8.518;2023-03-17T09:51:05;23.20;54.00
37342;DHT22;58643;49.052;8.518;2023-03-17T09:55:59;24.20;52.00
37342;DHT22;58643;49.052;8.518;2023-03-17T09:58:30;24.80;52.00
37342;DHT22;58643;49.052;8.518;2023-03-17T10:00:57;23.10;51.00
37342;DHT22;58643;49.052;8.518;2023-03-17T10:03:23;22.50;55.30
37342;DHT22;58643;49.052;8.518;2023-03-17T10:05:49;23.10;53.40
37342;DHT22;58643;49.052;8.518;2023-03-17T10:13:42;25.80;47.10
37342;DHT22;58643;49.052;8.518;2023-03-17T10:16:14;26.30;47.90
37342;DHT22;58643;49.052;8.518;2023-03-17T10:18:43;26.50;47.30
37342;DHT22;58643;49.052;8.518;2023-03-17T10:21:12;26.30;48.00
37342;DHT22;58643;49.052;8.518;2023-03-17T10:23:40;25.30;47.20
37342;DHT22;58643;49.052;8.518;2023-03-17T10:26:16;24.50;49.50
37342;DHT22;58643;49.052;8.518;2023-03-17T10:28:45;24.40;49.70
37342;DHT22;58643;49.052;8.518;2023-03-17T10:31:14;24.30;49.00
37342;DHT22;58643;49.052;8.518;2023-03-17T10:33:40;23.80;49.80
37342;DHT22;58643;49.052;8.518;2023-03-17T10:36:07;23.70;52.20
37342;DHT22;58643;49.052;8.518;2023-03-17T10:38:33;24.00;51.40
37342;DHT22;58643;49.052;8.518;2023-03-17T10:41:00;23.60;51.00
37342;DHT22;58643;49.052;8.518;2023-03-17T10:43:28;23.10;51.90
37342;DHT22;58643;49.052;8.518;2023-03-17T10:46:01;23.60;52.50
37342;DHT22;58643;49.052;8.518;2023-03-17T10:48:28;23.30;50.40
37342;DHT22;58643;49.052;8.518;2023-03-17T10:50:55;23.10;51.60
37342;DHT22;58643;49.052;8.518;2023-03-17T10:53:21;22.70;53.40
37342;DHT22;58643;49.052;8.518;2023-03-17T10:56:06;22.80;55.10
37342;DHT22;58643;49.052;8.518;2023-03-17T11:01:07;23.10;52.20
37342;DHT22;58643;49.052;8.518;2023-03-17T11:03:40;23.40;50.90
37342;DHT22;58643;49.052;8.518;2023-03-17T11:06:13;23.50;53.60
37342;DHT22;58643;49.052;8.518;2023-03-17T11:08:50;23.90;52.20
37342;DHT22;58643;49.052;8.518;2023-03-17T11:11:28;24.80;52.90
37342;DHT22;58643;49.052;8.518;2023-03-17T11:14:03;24.80;48.50
37342;DHT22;58643;49.052;8.518;2023-03-17T11:16:34;24.80;49.00
37342;DHT22;58643;49.052;8.518;2023-03-17T11:19:01;24.30;48.50
37342;DHT22;58643;49.052;8.518;2023-03-17T11:21:31;23.80;52.00
37342;DHT22;58643;49.052;8.518;2023-03-17T11:24:01;23.70;50.60
37342;DHT22;58643;49.052;8.518;2023-03-17T11:31:40;24.50;49.20
37342;DHT22;58643;49.052;8.518;2023-03-17T11:34:13;24.40;50.40
37342;DHT22;58643;49.052;8.518;2023-03-17T11:36:50;24.60;51.70
37342;DHT22;58643;49.052;8.518;2023-03-17T11:39:21;24.00;51.10
37342;DHT22;58643;49.052;8.518;2023-03-17T11:49:40;22.60;55.90
37342;DHT22;58643;49.052;8.518;2023-03-17T11:57:32;23.60;51.90
37342;DHT22;58643;49.052;8.518;2023-03-17T12:00:02;23.70;52.00
37342;DHT22;58643;49.052;8.518;2023-03-17T12:02:30;22.90;53.50
37342;DHT22;58643;49.052;8.518;2023-03-17T12:07:23;23.40;54.10
37342;DHT22;58643;49.052;8.518;2023-03-17T12:09:55;23.50;53.70
37342;DHT22;58643;49.052;8.518;2023-03-17T12:12:27;23.20;53.30
37342;DHT22;58643;49.052;8.518;2023-03-17T12:14:55;23.00;53.80
37342;DHT22;58643;49.052;8.518;2023-03-17T12:17:22;22.70;54.10
37342;DHT22;58643;49.052;8.518;2023-03-17T12:27:35;22.30;53.70
37342;DHT22;58643;49.052;8.518;2023-03-17T12:32:36;22.60;53.70
37342;DHT22;58643;49.052;8.518;2023-03-17T12:35:10;22.90;52.80
37342;DHT22;58643;49.052;8.518;2023-03-17T12:37:43;23.00;54.40
37342;DHT22;58643;49.052;8.518;2023-03-17T12:40:10;22.90;55.00
37342;DHT22;58643;49.052;8.518;2023-03-17T12:42:45;23.00;55.00
37342;DHT22;58643;49.052;8.518;2023-03-17T12:50:26;23.00;52.50
37342;DHT22;58643;49.052;8.518;2023-03-17T12:52:59;22.70;52.30
37342;DHT22;58643;49.052;8.518;2023-03-17T12:55:26;22.70;55.20
37342;DHT22;58643;49.052;8.518;2023-03-17T12:58:05;22.60;55.30
37342;DHT22;58643;49.052;8.518;2023-03-17T13:00:46;22.70;53.40
37342;DHT22;58643;49.052;8.518;2023-03-17T13:05:43;23.20;54.30
37342;DHT22;58643;49.052;8.518;2023-03-17T13:08:20;23.30;54.00
37342;DHT22;58643;49.052;8.518;2023-03-17T13:10:47;23.60;54.60
37342;DHT22;58643;49.052;8.518;2023-03-17T13:21:22;23.30;55.60
37342;DHT22;58643;49.052;8.518;2023-03-17T13:23:40;23.00;55.80
37342;DHT22;58643;49.052;8.518;2023-03-17T13:26:05;22.90;53.40
37342;DHT22;58643;49.052;8.518;2023-03-17T13:31:07;22.90;53.90
37342;DHT22;58643;49.052;8.518;2023-03-17T13:33:34;22.90;53.40
37342;DHT22;58643;49.052;8.518;2023-03-17T13:38:44;22.70;54.10
37342;DHT22;58643;49.052;8.518;2023-03-17T13:46:26;22.30;56.60
37342;DHT22;58643;49.052;8.518;2023-03-17T13:48:53;22.70;56.40
37342;DHT22;58643;49.052;8.518;2023-03-17T13:51:20;22.80;56.50
37342;DHT22;58643;49.052;8.518;2023-03-17T13:53:48;22.30;58.10
37342;DHT22;58643;49.052;8.518;2023-03-17T13:58:51;21.60;60.20
37342;DHT22;58643;49.052;8.518;2023-03-17T14:01:17;21.70;58.80
37342;DHT22;58643;49.052;8.518;2023-03-17T14:03:45;21.70;60.00
37342;DHT22;58643;49.052;8.518;2023-03-17T14:06:14;21.40;61.30
37342;DHT22;58643;49.052;8.518;2023-03-17T14:08:42;20.70;61.70
37342;DHT22;58643;49.052;8.518;2023-03-17T14:16:31;20.40;63.20
37342;DHT22;58643;49.052;8.518;2023-03-17T14:18:59;20.40;60.70
37342;DHT22;58643;49.052;8.518;2023-03-17T14:21:32;20.40;63.30
37342;DHT22;58643;49.052;8.518;2023-03-17T14:23:59;20.40;62.40
37342;DHT22;58643;49.052;8.518;2023-03-17T14:26:28;20.30;63.90
37342;DHT22;58643;49.052;8.518;2023-03-17T14:28:57;20.50;65.10
37342;DHT22;58643;49.052;8.518;2023-03-17T14:31:24;20.10;64.30
37342;DHT22;58643;49.052;8.518;2023-03-17T14:33:52;20.60;64.40
37342;DHT22;58643;49.052;8.518;2023-03-17T14:36:18;19.70;64.40
37342;DHT22;58643;49.052;8.518;2023-03-17T14:38:48;20.60;64.70
37342;DHT22;58643;49.052;8.518;2023-03-17T14:43:40;21.50;65.30
37342;DHT22;58643;49.052;8.518;2023-03-17T14:46:12;21.60;63.20
37342;DHT22;58643;49.052;8.518;2023-03-17T14:48:39;21.40;63.50
37342;DHT22;58643;49.052;8.518;2023-03-17T14:51:06;20.80;65.60
37342;DHT22;58643;49.052;8.518;2023-03-17T14:53:38;20.60;67.40
37342;DHT22;58643;49.052;8.518;2023-03-17T14:56:04;19.80;65.70
37342;DHT22;58643;49.052;8.518;2023-03-17T14:58:33;19.50;68.80
37342;DHT22;58643;49.052;8.518;2023-03-17T15:03:28;18.90;68.20
37342;DHT22;58643;49.052;8.518;2023-03-17T15:06:05;19.20;71.90
37342;DHT22;58643;49.052;8.518;2023-03-17T15:11:00;19.00;69.50
37342;DHT22;58643;49.052;8.518;2023-03-17T15:13:27;19.20;72.10
37342;DHT22;58643;49.052;8.518;2023-03-17T15:15:52;19.00;71.90
37342;DHT22;58643;49.052;8.518;2023-03-17T15:18:18;18.60;73.60
37342;DHT22;58643;49.052;8.518;2023-03-17T15:20:48;18.70;73.40
37342;DHT22;58643;49.052;8.518;2023-03-17T15:23:20;19.60;75.00
37342;DHT22;58643;49.052;8.518;2023-03-17T15:25:47;18.60;72.40
37342;DHT22;58643;49.052;8.518;2023-03-17T15:28:20;18.50;74.30
37342;DHT22;58643;49.052;8.518;2023-03-17T15:30:46;19.80;77.20
37342;DHT22;58643;49.052;8.518;2023-03-17T15:33:18;18.40;77.30
37342;DHT22;58643;49.052;8.518;2023-03-17T15:35:44;18.30;75.10
37342;DHT22;58643;49.052;8.518;2023-03-17T15:38:10;18.20;78.50
37342;DHT22;58643;49.052;8.518;2023-03-17T15:40:35;18.20;80.30
37342;DHT22;58643;49.052;8.518;2023-03-17T15:43:01;18.00;81.80
37342;DHT22;58643;49.052;8.518;2023-03-17T15:45:26;18.30;80.90
37342;DHT22;58643;49.052;8.518;2023-03-17T15:47:52;18.30;81.60
37342;DHT22;58643;49.052;8.518;2023-03-17T15:52:48;17.90;81.50
37342;DHT22;58643;49.052;8.518;2023-03-17T15:55:19;18.00;84.20
37342;DHT22;58643;49.052;8.518;2023-03-17T15:57:45;18.10;84.00
37342;DHT22;58643;49.052;8.518;2023-03-17T16:00:14;17.80;85.30
37342;DHT22;58643;49.052;8.518;2023-03-17T16:02:41;17.80;84.00
37342;DHT22;58643;49.052;8.518;2023-03-17T16:05:14;17.80;88.20
37342;DHT22;58643;49.052;8.518;2023-03-17T16:07:39;17.80;84.60
37342;DHT22;58643;49.052;8.518;2023-03-17T16:10:19;17.30;87.80
37342;DHT22;58643;49.052;8.518;2023-03-17T16:12:46;17.10;87.70
37342;DHT22;58643;49.052;8.518;2023-03-17T16:15:22;17.20;89.40
37342;DHT22;58643;49.052;8.518;2023-03-17T16:17:48;17.00;89.00
37342;DHT22;58643;49.052;8.518;2023-03-17T16:20:25;17.00;91.50
37342;DHT22;58643;49.052;8.518;2023-03-17T16:22:55;16.90;91.90
37342;DHT22;58643;49.052;8.518;2023-03-17T16:25:29;16.80;92.20
37342;DHT22;58643;49.052;8.518;2023-03-17T16:27:56;16.60;94.00
37342;DHT22;58643;49.052;8.518;2023-03-17T16:30:29;17.50;94.90
37342;DHT22;58643;49.052;8.518;2023-03-17T16:32:59;16.40;94.90
37342;DHT22;58643;49.052;8.518;2023-03-17T16:35:26;16.20;95.80
37342;DHT22;58643;49.052;8.518;2023-03-17T16:37:51;16.30;96.90
37342;DHT22;58643;49.052;8.518;2023-03-17T16:40:19;16.00;97.30
37342;DHT22;58643;49.052;8.518;2023-03-17T16:42:46;16.10;97.50
37342;DHT22;58643;49.052;8.518;2023-03-17T16:45:19;16.10;98.30
37342;DHT22;58643;49.052;8.518;2023-03-17T16:47:46;15.90;98.00
37342;DHT22;58643;49.052;8.518;2023-03-17T16:50:13;17.80;99.90
37342;DHT22;58643;49.052;8.518;2023-03-17T16:52:39;15.70;99.90
37342;DHT22;58643;49.052;8.518;2023-03-17T16:55:05;15.70;99.90
37342;DHT22;58643;49.052;8.518;2023-03-17T16:57:32;15.50;99.90
37342;DHT22;58643;49.052;8.518;2023-03-17T16:59:57;17.40;99.90
37342;DHT22;58643;49.052;8.518;2023-03-17T17:02:23;17.80;99.90
37342;DHT22;58643;49.052;8.518;2023-03-17T17:04:49;16.40;99.90
37342;DHT22;58643;49.052;8.518;2023-03-17T17:07:15;15.30;99.90
37342;DHT22;58643;49.052;8.518;2023-03-17T17:09:40;15.40;99.90
37342;DHT22;58643;49.052;8.518;2023-03-17T17:12:06;15.10;99.90
37342;DHT22;58643;49.052;8.518;2023-03-17T17:14:31;17.30;99.90